Lancaster, MO (63548)

10:10 AM CDT on March 29, 2017 (GMT -0500)
MD7460 | | Change Station

Elev 931 ft 40.52 °N, 92.52 °W | Updated 43 minutes ago

Overcast
Overcast
40.0 °F
Feels Like 37 °F
N
4.0
Wind Variable Wind from NE

Today
High -- | Low -- °F
--% Chance of Precip.
Yesterday
High -- | Low -- °F
Precip. -- in
Pressure 30.03 in
Visibility 10.0 miles
Clouds Overcast 500 ft
Windchill 37 °F
Dew Point 39 °F
Humidity 97%
Rainfall 0.19 in
Snow Depth Not available.
6:58 AM 7:31 PM
Waxing Crescent, 3% visible
METAR KTVK 291455Z AUTO 08015G22KT 10SM -RA OVC005 05/05 A3003 RMK AO2 P0001
Pressure 30.03 in
Visibility 10.0 miles
Clouds Overcast 500 ft
Windchill 37 °F
Dew Point 39 °F
Humidity 97%
Rainfall 0.19 in
Snow Depth Not available.
6:58 AM 7:31 PM
Waxing Crescent, 3% visible
METAR KTVK 291455Z AUTO 08015G22KT 10SM -RA OVC005 05/05 A3003 RMK AO2 P0001

Get Severe Weather Alerts

Thanks for signing up!

Be on the lookout for a verification email in your inbox.

You'll start receiving the daily forecast at 8 AM.

×

10-Day Weather Forecast

Almanac

Astronomy

Mar. 29, 2017 Rise Set
Actual Time
Civil Twilight
Nautical Twilight
Astronomical Twilight
Moon
Length of Visible Light
Length of Day
Tomorrow will be .
, % of the Moon is Illuminated

Today's Extremes

State Highs State Lows

Community

WunderPhotos

Upload Photos

1,962,540 photos uploaded!

WunderBlog® & News

Nearby

Air Quality

  Air Quality AQ Index Pollutant
Not available.

Snow Depth

Station Depth Elevation

Earthquake Activity

City Distance Mag. Time & Date
Minimum magnitude displayed is 2.5.

Earthquake Activity

City Distance Mag. Time & Date
Minimum magnitude displayed is 2.5.

Coastal Water Temperatures

Place Temperature

Stations

Nearby Weather Stations

Station Location Temp. Windchill Dew Point Humidity Wind Precip. Elev Updated Type
                   

Watches & Warnings

There are currently no watches in effect.